Time;durP1;ratioP1;P1;durP2;ratioP2;P2;SDS_P1;SDS_P2;PMS_P1;PMS_P2;Temp;Humidity;BMP_temperature;BMP_pressure;BME280_temperature;BME280_humidity;BME280_pressure;Samples;Min_cycle;Max_cycle;Signal;HPM_P1;HPM_P2
2022/07/01 00:02:05;;;;;;;13.05;9.95;;;;;;;17.39;65.06;101447.56;5070199;28;20021;-68
2022/07/01 00:04:30;;;;;;;11.43;9.50;;;;;;;17.40;65.08;101446.41;5076283;28;20071;-69
2022/07/01 00:06:56;;;;;;;10.50;9.40;;;;;;;17.38;65.28;101442.22;5074223;28;20032;-68
2022/07/01 00:09:22;;;;;;;10.75;9.65;;;;;;;17.38;65.10;101440.28;5070955;28;20170;-69
2022/07/01 00:11:48;;;;;;;10.80;9.73;;;;;;;17.34;65.07;101433.53;5070642;28;20032;-69
2022/07/01 00:14:14;;;;;;;12.32;10.38;;;;;;;17.28;64.99;101434.66;5071035;28;20032;-69
2022/07/01 00:16:39;;;;;;;11.88;9.93;;;;;;;17.31;65.04;101425.69;5070651;28;20460;-68
2022/07/01 00:19:04;;;;;;;12.80;10.25;;;;;;;17.23;65.00;101431.88;5075112;28;20024;-69
2022/07/01 00:21:30;;;;;;;13.05;10.93;;;;;;;17.20;65.26;101421.22;5085114;28;20533;-69
2022/07/01 00:23:55;;;;;;;12.10;10.50;;;;;;;17.27;64.96;101426.53;5071676;28;20029;-68
2022/07/01 00:26:21;;;;;;;12.75;11.38;;;;;;;17.28;65.10;101419.81;5070698;28;20468;-69
2022/07/01 00:28:46;;;;;;;13.05;11.05;;;;;;;17.18;65.29;101415.91;5070728;28;20039;-68
2022/07/01 00:31:11;;;;;;;13.88;11.38;;;;;;;17.15;65.77;101418.44;5065824;28;20112;-69
2022/07/01 00:33:37;;;;;;;11.85;10.65;;;;;;;17.16;65.26;101420.94;5047392;28;20043;-69
2022/07/01 00:36:02;;;;;;;12.98;11.23;;;;;;;17.10;65.72;101410.03;5059362;28;20361;-68
2022/07/01 00:38:28;;;;;;;13.32;11.30;;;;;;;17.13;65.78;101403.84;5051619;28;20032;-68
2022/07/01 00:40:54;;;;;;;14.35;11.80;;;;;;;17.15;65.70;101396.84;5051375;28;20376;-68
2022/07/01 00:43:22;;;;;;;13.55;12.07;;;;;;;17.12;65.67;101400.19;5049165;28;20041;-68
2022/07/01 00:45:48;;;;;;;13.02;11.15;;;;;;;17.20;65.35;101400.75;5051252;28;20123;-68
2022/07/01 00:48:14;;;;;;;14.18;11.20;;;;;;;17.12;65.56;101404.97;5048576;28;20101;-68
2022/07/01 00:50:39;;;;;;;13.93;11.88;;;;;;;17.10;65.54;101401.63;5055266;28;20028;-68
2022/07/01 00:53:05;;;;;;;13.27;11.07;;;;;;;17.13;65.43;101396.28;5056274;28;20031;-68
2022/07/01 00:55:30;;;;;;;13.60;12.00;;;;;;;17.23;65.12;101395.41;5048187;28;20037;-68
2022/07/01 00:57:55;;;;;;;13.07;10.75;;;;;;;17.27;65.10;101409.72;5050677;28;20025;-68
2022/07/01 01:00:24;;;;;;;12.32;10.93;;;;;;;17.14;65.20;101412.00;5050093;28;20017;-68
2022/07/01 01:02:49;;;;;;;11.90;10.68;;;;;;;17.12;65.56;101414.22;5051103;28;20524;-68
2022/07/01 01:05:17;;;;;;;13.43;10.95;;;;;;;17.17;65.62;101416.16;5058264;28;20104;-68
2022/07/01 01:07:43;;;;;;;14.25;10.73;;;;;;;17.23;65.28;101426.28;5051049;28;20032;-68
2022/07/01 01:10:09;;;;;;;12.98;11.30;;;;;;;17.18;65.50;101429.09;5051324;28;20032;-68
2022/07/01 01:12:35;;;;;;;13.50;10.65;;;;;;;17.14;65.61;101430.78;5050236;28;20028;-67
2022/07/01 01:15:01;;;;;;;13.85;11.48;;;;;;;17.07;65.68;101427.44;5048724;28;20040;-68
2022/07/01 01:17:26;;;;;;;14.57;11.93;;;;;;;17.19;65.81;101447.59;5049111;28;20028;-68
2022/07/01 01:19:53;;;;;;;17.50;12.85;;;;;;;17.12;65.94;101445.06;5054520;28;20021;-70
2022/07/01 01:22:19;;;;;;;14.00;11.95;;;;;;;17.16;65.70;101456.56;5054316;28;20136;-68
2022/07/01 01:24:47;;;;;;;14.90;12.60;;;;;;;17.07;66.07;101455.47;5050706;28;20017;-67
2022/07/01 01:27:13;;;;;;;17.05;12.57;;;;;;;17.07;66.23;101455.47;5052117;28;20116;-67
2022/07/01 01:29:39;;;;;;;17.27;12.45;;;;;;;17.06;66.33;101454.63;5065853;28;20028;-67
2022/07/01 01:32:06;;;;;;;19.80;13.65;;;;;;;17.05;66.29;101452.09;5059263;28;20056;-67
2022/07/01 01:34:32;;;;;;;14.98;12.68;;;;;;;17.02;66.65;101458.28;5052289;28;20104;-67
2022/07/01 01:36:58;;;;;;;17.75;13.20;;;;;;;16.96;66.80;101446.22;5070848;28;20033;-67
2022/07/01 01:39:24;;;;;;;16.70;13.40;;;;;;;17.01;66.68;101450.97;5053353;28;20039;-67
2022/07/01 01:41:49;;;;;;;16.77;12.70;;;;;;;17.04;66.76;101459.66;5062318;28;20047;-68
2022/07/01 01:44:14;;;;;;;15.00;12.40;;;;;;;17.06;67.10;101453.81;5051802;28;20079;-68
2022/07/01 01:46:40;;;;;;;18.10;13.35;;;;;;;17.05;66.67;101449.28;5045152;28;20493;-67
2022/07/01 01:49:06;;;;;;;18.58;13.95;;;;;;;17.00;66.77;101444.53;5053996;28;20060;-68
2022/07/01 01:51:32;;;;;;;17.83;13.85;;;;;;;16.97;66.62;101445.09;5043196;28;20052;-67
2022/07/01 01:53:58;;;;;;;17.40;13.23;;;;;;;16.97;66.83;101449.88;5052303;28;20024;-67
2022/07/01 01:56:24;;;;;;;17.67;13.20;;;;;;;16.99;66.56;101451.28;5054247;28;20379;-68
2022/07/01 01:58:49;;;;;;;17.63;13.95;;;;;;;16.96;67.16;101453.78;5070171;28;20805;-68
2022/07/01 02:01:16;;;;;;;17.45;13.80;;;;;;;16.98;66.83;101449.59;5055442;28;20107;-67
2022/07/01 02:03:43;;;;;;;18.92;13.82;;;;;;;16.96;66.95;101446.22;5052866;28;20086;-68
2022/07/01 02:06:10;;;;;;;17.25;14.07;;;;;;;17.03;66.98;101454.34;5052698;28;20074;-67
2022/07/01 02:08:36;;;;;;;19.25;14.30;;;;;;;16.98;66.84;101457.16;5067472;28;20094;-67
2022/07/01 02:11:02;;;;;;;20.23;14.27;;;;;;;16.93;66.73;101461.63;5057128;28;20533;-68
2022/07/01 02:13:28;;;;;;;17.25;14.00;;;;;;;16.97;66.99;101469.50;5067852;28;20025;-68
2022/07/01 02:15:53;;;;;;;22.77;14.30;;;;;;;16.91;67.08;101472.31;5051167;28;20033;-67
2022/07/01 02:18:19;;;;;;;19.25;14.80;;;;;;;16.83;66.89;101480.44;5058064;28;20009;-67
2022/07/01 02:20:44;;;;;;;17.88;14.32;;;;;;;16.86;66.98;101479.91;5053132;28;20074;-67
2022/07/01 02:23:09;;;;;;;19.10;13.95;;;;;;;16.98;66.75;101479.56;5054207;28;20102;-67
2022/07/01 02:25:35;;;;;;;19.33;14.68;;;;;;;16.85;67.20;101493.03;5048030;28;20044;-67
2022/07/01 02:28:01;;;;;;;19.38;14.02;;;;;;;16.92;66.72;101504.81;5062392;28;20170;-68
2022/07/01 02:30:27;;;;;;;22.10;14.50;;;;;;;16.96;66.70;101507.06;5058411;28;20108;-68
2022/07/01 02:32:53;;;;;;;20.92;14.48;;;;;;;16.86;67.00;101494.75;5082624;28;20047;-67
2022/07/01 02:35:18;;;;;;;18.92;14.82;;;;;;;16.85;67.19;101465.00;5070702;28;20037;-68
2022/07/01 02:37:44;;;;;;;19.35;14.57;;;;;;;16.82;67.27;101443.16;5073294;28;20033;-68
2022/07/01 02:40:11;;;;;;;21.45;15.40;;;;;;;16.89;67.08;101446.50;5073320;28;20031;-69
2022/07/01 02:42:37;;;;;;;20.30;14.80;;;;;;;16.85;67.16;101472.56;5070189;28;20062;-69
2022/07/01 02:45:07;;;;;;;20.35;15.27;;;;;;;16.82;66.97;101471.19;5073595;28;20100;-69
2022/07/01 02:47:36;;;;;;;22.85;15.68;;;;;;;16.76;67.17;101472.31;5076537;28;20405;-70
2022/07/01 02:50:09;;;;;;;19.77;14.98;;;;;;;16.79;67.28;101487.72;5080488;28;20033;-69
2022/07/01 02:52:36;;;;;;;19.25;15.38;;;;;;;16.71;67.44;101486.28;5072752;28;20033;-69
2022/07/01 02:55:04;;;;;;;20.35;14.85;;;;;;;16.80;67.12;101495.00;5072679;28;20043;-69
2022/07/01 02:57:29;;;;;;;21.00;15.50;;;;;;;16.82;67.27;101492.75;5072324;28;20024;-69
2022/07/01 02:59:55;;;;;;;20.33;15.55;;;;;;;16.80;67.24;101493.03;5076168;28;20046;-69
2022/07/01 03:02:20;;;;;;;22.98;16.83;;;;;;;16.74;67.58;101484.91;5070607;28;20078;-69
2022/07/01 03:04:47;;;;;;;21.85;16.13;;;;;;;16.71;67.40;101479.84;5072108;28;20094;-69
2022/07/01 03:07:13;;;;;;;22.33;15.93;;;;;;;16.63;67.95;101484.88;5071814;28;20040;-69
2022/07/01 03:09:39;;;;;;;21.83;15.98;;;;;;;16.69;67.65;101486.56;5073838;28;20046;-69
2022/07/01 03:12:24;;;;;;;26.65;17.17;;;;;;;16.64;67.95;101491.31;5072119;28;20024;-69
2022/07/01 03:14:49;;;;;;;24.77;18.42;;;;;;;16.67;67.74;101488.81;5071768;28;20024;-69
2022/07/01 03:17:15;;;;;;;29.92;20.02;;;;;;;16.68;67.89;101498.06;5071671;28;20066;-69
2022/07/01 03:19:40;;;;;;;27.42;19.10;;;;;;;16.66;67.76;101495.53;5072301;28;20380;-69
2022/07/01 03:22:05;;;;;;;23.13;18.30;;;;;;;16.69;67.65;101494.13;5072210;28;20112;-69
2022/07/01 03:24:31;;;;;;;24.23;17.63;;;;;;;16.73;67.47;101478.47;5079872;28;20724;-69
2022/07/01 03:26:56;;;;;;;26.98;18.30;;;;;;;16.72;67.63;101490.78;5070806;28;20403;-69
2022/07/01 03:29:22;;;;;;;28.65;19.17;;;;;;;16.75;67.19;101487.44;5070608;28;20036;-69
2022/07/01 03:31:47;;;;;;;25.08;18.35;;;;;;;16.66;67.50;101492.75;5071342;28;20045;-69
2022/07/01 03:34:12;;;;;;;26.83;19.70;;;;;;;16.64;67.49;101492.16;5072319;28;20025;-69
2022/07/01 03:36:37;;;;;;;25.45;19.80;;;;;;;16.66;67.29;101506.75;5071946;28;20033;-69
2022/07/01 03:39:04;;;;;;;25.00;18.88;;;;;;;16.65;67.45;101521.03;5069734;28;20033;-69
2022/07/01 03:41:29;;;;;;;26.33;19.15;;;;;;;16.57;67.80;101529.97;5070017;28;20090;-69
2022/07/01 03:43:55;;;;;;;23.23;19.17;;;;;;;16.66;67.51;101522.69;5071586;28;20056;-69
2022/07/01 03:46:20;;;;;;;26.00;19.75;;;;;;;16.65;67.21;101530.28;5069643;28;20036;-69
2022/07/01 03:48:45;;;;;;;25.02;20.50;;;;;;;16.53;67.24;101532.50;5072131;28;20020;-69
2022/07/01 03:51:10;;;;;;;26.17;21.17;;;;;;;16.53;67.58;101545.66;5070805;28;20032;-69
2022/07/01 03:56:19;;;;;;;24.35;20.17;;;;;;;16.58;67.43;101551.28;5065916;28;20079;-68
2022/07/01 03:58:45;;;;;;;24.98;19.98;;;;;;;16.54;67.62;101550.16;5072305;28;20060;-69
2022/07/01 04:01:10;;;;;;;28.33;21.00;;;;;;;16.50;67.57;101557.41;5070170;28;20743;-69
2022/07/01 04:03:35;;;;;;;27.08;21.55;;;;;;;16.50;67.44;101563.03;5070898;28;20448;-69
2022/07/01 04:06:01;;;;;;;29.00;21.60;;;;;;;16.54;67.47;101562.19;5071680;28;20024;-69
2022/07/01 04:08:26;;;;;;;27.15;22.13;;;;;;;16.47;67.21;101558.00;5071172;28;20032;-69
2022/07/01 04:10:53;;;;;;;28.40;22.45;;;;;;;16.48;67.73;101562.47;5071556;28;20156;-69
2022/07/01 04:13:19;;;;;;;29.58;23.58;;;;;;;16.41;67.87;101559.91;5069564;28;20069;-69
2022/07/01 04:15:44;;;;;;;29.90;23.77;;;;;;;16.39;67.98;101551.81;5082523;28;20115;-69
2022/07/01 04:18:10;;;;;;;33.40;25.88;;;;;;;16.45;67.81;101556.28;5080995;28;20024;-69
2022/07/01 04:20:35;;;;;;;30.85;25.70;;;;;;;16.40;68.11;101563.84;5069536;28;20422;-69
2022/07/01 04:23:01;;;;;;;35.10;27.42;;;;;;;16.42;67.71;101561.59;5069912;28;20033;-69
2022/07/01 04:25:29;;;;;;;35.25;27.17;;;;;;;16.42;67.59;101551.22;5067873;28;20024;-67
2022/07/01 04:27:55;;;;;;;31.67;24.92;;;;;;;16.50;67.66;101551.81;5070899;28;20032;-68
2022/07/01 04:30:20;;;;;;;29.67;22.85;;;;;;;16.44;67.48;101554.63;5070728;28;20020;-67
2022/07/01 04:32:45;;;;;;;26.73;22.15;;;;;;;16.47;67.15;101546.78;5071167;28;20040;-69
2022/07/01 04:35:12;;;;;;;25.30;20.70;;;;;;;16.43;67.44;101557.69;5070454;28;20032;-69
2022/07/01 04:37:38;;;;;;;24.65;19.52;;;;;;;16.38;67.64;101557.66;5071429;28;20375;-69
2022/07/01 04:40:04;;;;;;;23.80;19.65;;;;;;;16.30;67.55;101566.59;5070825;28;20021;-70
2022/07/01 04:42:29;;;;;;;21.83;18.10;;;;;;;16.35;67.97;101563.84;5082268;28;20036;-69
2022/07/01 04:44:55;;;;;;;25.55;17.38;;;;;;;16.40;67.64;101569.44;5083554;28;20016;-70
2022/07/01 04:47:22;;;;;;;19.70;15.95;;;;;;;16.34;67.71;101568.56;5070536;28;20021;-69
2022/07/01 04:49:47;;;;;;;20.90;15.27;;;;;;;16.33;67.85;101569.69;5073970;28;20039;-69
2022/07/01 04:52:12;;;;;;;19.67;14.45;;;;;;;16.35;67.44;101572.25;5069775;28;20024;-69
2022/07/01 04:54:38;;;;;;;18.63;14.02;;;;;;;16.35;67.69;101569.44;5073647;28;20028;-69
2022/07/01 04:57:03;;;;;;;17.02;13.18;;;;;;;16.39;67.38;101568.63;5077745;28;20117;-67
2022/07/01 04:59:28;;;;;;;15.30;13.35;;;;;;;16.29;67.56;101565.75;5074580;28;20056;-69
2022/07/01 05:01:54;;;;;;;18.70;13.23;;;;;;;16.33;67.57;101564.09;5077126;28;20060;-69
2022/07/01 05:04:19;;;;;;;17.45;13.30;;;;;;;16.39;67.37;101568.63;5082497;28;20036;-68
2022/07/01 05:06:45;;;;;;;16.67;13.15;;;;;;;16.34;67.59;101568.56;5073831;28;20143;-68
2022/07/01 05:09:11;;;;;;;15.95;12.60;;;;;;;16.40;67.63;101575.91;5081502;28;20044;-68
2022/07/01 05:11:38;;;;;;;16.08;13.20;;;;;;;16.39;67.79;101584.59;5085899;28;20036;-68
2022/07/01 05:14:04;;;;;;;14.35;12.00;;;;;;;16.43;67.75;101586.56;5073809;28;20036;-68
2022/07/01 05:16:29;;;;;;;16.75;11.95;;;;;;;16.34;68.28;101579.78;5072790;28;20045;-68
2022/07/01 05:21:58;;;;;;;15.40;11.70;;;;;;;16.33;68.11;101580.91;5048420;28;20574;-68
2022/07/01 05:24:30;;;;;;;14.18;11.95;;;;;;;16.38;67.73;101586.53;5074090;28;20032;-68
2022/07/01 05:26:56;;;;;;;16.57;11.70;;;;;;;16.38;67.94;101577.28;5071614;28;20032;-68
2022/07/01 05:29:21;;;;;;;15.98;11.00;;;;;;;16.45;67.55;101581.50;5072302;28;20308;-68
2022/07/01 05:31:47;;;;;;;16.55;11.07;;;;;;;16.39;67.73;101577.03;5077926;28;20499;-68
2022/07/01 05:34:12;;;;;;;14.10;10.90;;;;;;;16.45;67.62;101577.88;5078686;28;20037;-68
2022/07/01 05:36:38;;;;;;;16.20;11.55;;;;;;;16.48;67.72;101577.31;5074594;28;20508;-68
2022/07/01 05:39:04;;;;;;;14.60;10.75;;;;;;;16.44;67.53;101576.19;5073439;28;20479;-68
2022/07/01 05:41:29;;;;;;;14.45;10.93;;;;;;;16.42;67.88;101590.47;5075439;28;20063;-68
2022/07/01 05:43:55;;;;;;;14.43;10.68;;;;;;;16.40;67.51;101575.91;5079105;28;20490;-68
2022/07/01 05:46:20;;;;;;;14.88;11.07;;;;;;;16.44;67.64;101579.84;5070142;28;20029;-68
2022/07/01 05:48:45;;;;;;;17.33;11.75;;;;;;;16.45;67.46;101584.31;5081379;28;20028;-68
2022/07/01 05:51:11;;;;;;;14.18;10.98;;;;;;;16.41;67.33;101577.56;5080021;28;21049;-68
2022/07/01 05:53:36;;;;;;;17.70;11.27;;;;;;;16.44;67.35;101582.63;5073144;28;20043;-68
2022/07/01 05:56:01;;;;;;;14.70;11.85;;;;;;;16.48;67.57;101593.31;5072191;28;20089;-65
2022/07/01 05:58:27;;;;;;;15.95;11.10;;;;;;;16.54;67.47;101587.41;5072822;28;20480;-66
2022/07/01 06:00:52;;;;;;;16.90;11.70;;;;;;;16.60;67.60;101591.94;5073061;28;20020;-66
2022/07/01 06:03:17;;;;;;;19.77;11.50;;;;;;;16.76;67.39;101575.19;5068706;28;20074;-69
2022/07/01 06:05:42;;;;;;;16.65;11.65;;;;;;;16.87;67.03;101586.16;5074190;28;20016;-68
2022/07/01 06:08:08;;;;;;;14.45;11.07;;;;;;;17.00;67.04;101583.91;5075942;28;20028;-69
2022/07/01 06:10:35;;;;;;;14.18;11.20;;;;;;;16.98;66.83;101574.94;5070074;28;20035;-67
2022/07/01 06:13:01;;;;;;;13.27;11.25;;;;;;;16.97;66.91;101590.91;5070527;28;20376;-67
2022/07/01 06:15:27;;;;;;;13.80;10.60;;;;;;;17.14;69.28;101587.88;5073445;28;20048;-69
2022/07/01 06:17:53;;;;;;;10.98;7.75;;;;;;;17.34;68.41;101590.69;5072023;28;20047;-69
2022/07/01 06:20:18;;;;;;;11.40;8.55;;;;;;;17.53;67.74;101584.50;5070883;28;20020;-69
2022/07/01 06:22:44;;;;;;;9.55;7.70;;;;;;;17.62;66.77;101591.22;5087186;28;20467;-69
2022/07/01 06:25:09;;;;;;;15.18;10.55;;;;;;;17.63;65.39;101588.13;5071604;28;20040;-69
2022/07/01 06:27:42;;;;;;;9.05;6.80;;;;;;;17.83;66.16;101584.47;5073342;28;20027;-68
2022/07/01 06:30:09;;;;;;;10.65;7.38;;;;;;;17.81;65.11;101578.31;5069798;28;20111;-69
2022/07/01 06:32:34;;;;;;;10.23;7.18;;;;;;;17.89;64.94;101580.53;5067454;28;20517;-68
2022/07/01 06:34:59;;;;;;;11.73;6.88;;;;;;;18.02;64.97;101579.09;5071253;28;20544;-69
2022/07/01 06:37:25;;;;;;;12.15;7.00;;;;;;;18.02;64.26;101579.09;5069683;28;20040;-68
2022/07/01 06:39:50;;;;;;;9.25;6.90;;;;;;;18.13;63.94;101577.09;5073103;28;20027;-67
2022/07/01 06:42:15;;;;;;;10.73;6.53;;;;;;;18.25;64.23;101588.00;5074055;28;20473;-67
2022/07/01 06:44:41;;;;;;;9.52;8.13;;;;;;;18.22;63.37;101582.94;5073152;28;20173;-67
2022/07/01 06:47:07;;;;;;;7.38;5.35;;;;;;;18.45;62.88;101575.84;5069872;28;20032;-69
2022/07/01 06:49:32;;;;;;;12.60;8.13;;;;;;;18.32;62.03;101572.53;5070257;28;20047;-72
2022/07/01 06:51:57;;;;;;;7.72;5.75;;;;;;;18.52;61.56;101570.75;5069915;28;20058;-69
2022/07/01 06:54:23;;;;;;;10.32;6.50;;;;;;;18.68;61.67;101569.53;5066657;28;20123;-69
2022/07/01 06:56:48;;;;;;;7.15;5.65;;;;;;;18.75;61.30;101575.72;5066882;28;20064;-69
2022/07/01 06:59:15;;;;;;;7.32;5.35;;;;;;;18.95;60.93;101571.91;5068564;28;20081;-68
2022/07/01 07:01:40;;;;;;;8.00;6.75;;;;;;;18.74;58.87;101578.78;5069088;28;20024;-69
2022/07/01 07:04:06;;;;;;;10.68;5.18;;;;;;;19.01;60.16;101581.16;5060606;28;20024;-69
2022/07/01 07:06:31;;;;;;;9.55;4.35;;;;;;;19.22;59.55;101576.22;5065389;28;20029;-69
2022/07/01 07:08:56;;;;;;;8.75;4.28;;;;;;;19.34;59.29;101583.16;5066963;28;20032;-69
2022/07/01 07:11:21;;;;;;;6.20;3.80;;;;;;;19.47;58.90;101592.03;5065160;28;20123;-74
2022/07/01 07:13:47;;;;;;;5.30;3.83;;;;;;;19.55;58.59;101599.84;5066252;28;20059;-69
2022/07/01 07:16:12;;;;;;;6.00;3.92;;;;;;;19.42;57.87;101609.00;5067548;28;20051;-73
2022/07/01 07:18:38;;;;;;;6.55;3.60;;;;;;;19.54;57.96;101617.91;5071050;28;20190;-72
2022/07/01 07:21:03;;;;;;;4.50;3.17;;;;;;;19.55;57.15;101617.59;5068594;28;20032;-71
2022/07/01 07:23:28;;;;;;;7.68;3.72;;;;;;;19.55;57.77;101611.13;5070765;28;20051;-72
2022/07/01 07:25:54;;;;;;;6.53;3.50;;;;;;;19.29;57.10;101594.44;5070766;28;20044;-72
2022/07/01 07:28:20;;;;;;;6.85;3.08;;;;;;;19.32;56.75;101602.28;5076943;28;20028;-74
2022/07/01 07:30:45;;;;;;;4.82;2.70;;;;;;;19.36;57.22;101600.56;5084588;28;20035;-73
2022/07/01 07:33:10;;;;;;;4.15;2.72;;;;;;;19.50;57.15;101599.91;5060989;28;20044;-75
2022/07/01 07:35:35;;;;;;;7.72;3.10;;;;;;;19.21;54.68;101614.75;5071621;28;20055;-70
2022/07/01 07:38:01;;;;;;;5.75;2.42;;;;;;;19.42;56.78;101606.19;5070232;28;20027;-74
2022/07/01 07:40:26;;;;;;;3.42;2.17;;;;;;;19.53;56.85;101602.13;5069371;28;20032;-76
2022/07/01 07:42:51;;;;;;;5.32;2.38;;;;;;;19.60;56.35;101611.06;5068800;28;20107;-77
2022/07/01 07:45:17;;;;;;;4.90;2.58;;;;;;;19.54;55.80;101615.91;5069998;28;20488;-74
2022/07/01 07:47:44;;;;;;;4.93;2.08;;;;;;;19.62;55.58;101617.28;5070364;28;20107;-72
2022/07/01 07:50:09;;;;;;;4.68;2.10;;;;;;;19.65;55.14;101613.88;5069458;28;20024;-69
2022/07/01 07:52:35;;;;;;;4.78;1.85;;;;;;;19.67;54.70;101628.50;5086689;28;20476;-76
2022/07/01 07:55:00;;;;;;;7.82;1.60;;;;;;;19.90;54.80;101626.03;5069608;28;20016;-70
2022/07/01 07:57:26;;;;;;;4.78;1.70;;;;;;;19.88;54.17;101631.13;5075385;28;20027;-71
2022/07/01 07:59:51;;;;;;;5.32;1.60;;;;;;;19.92;53.46;101626.56;5076030;28;20559;-68
2022/07/01 08:02:16;;;;;;;3.00;1.33;;;;;;;19.92;53.21;101632.19;5070002;28;20028;-71
2022/07/01 08:04:41;;;;;;;4.95;1.50;;;;;;;20.14;53.39;101628.88;5064528;28;20260;-70
2022/07/01 08:07:07;;;;;;;3.70;1.80;;;;;;;20.22;52.37;101619.75;5066714;28;20028;-71
2022/07/01 08:09:34;;;;;;;3.50;1.25;;;;;;;20.23;52.44;101630.72;5073392;28;20025;-70
2022/07/01 08:12:00;;;;;;;2.75;1.20;;;;;;;20.28;51.89;101635.50;5066245;28;20031;-71
2022/07/01 08:14:25;;;;;;;4.68;1.40;;;;;;;20.31;50.36;101638.53;5066333;28;20147;-71
2022/07/01 08:16:51;;;;;;;2.97;1.30;;;;;;;20.15;50.11;101639.00;5071096;28;20024;-71
2022/07/01 08:19:17;;;;;;;3.42;1.00;;;;;;;20.27;50.65;101639.44;5068986;28;20016;-71
2022/07/01 08:21:42;;;;;;;3.70;1.20;;;;;;;20.49;51.16;101644.56;5075496;28;20043;-71
2022/07/01 08:24:07;;;;;;;3.08;1.10;;;;;;;20.48;50.88;101646.53;5069258;28;20024;-71
2022/07/01 08:26:33;;;;;;;5.30;1.42;;;;;;;20.58;51.22;101656.84;5069755;28;20024;-71
2022/07/01 08:28:58;;;;;;;2.88;1.10;;;;;;;20.56;49.65;101656.34;5070566;28;20020;-69
2022/07/01 08:31:23;;;;;;;4.93;1.10;;;;;;;20.61;49.80;101661.91;5064764;28;20056;-70
2022/07/01 08:33:48;;;;;;;5.93;1.08;;;;;;;20.67;48.78;101657.88;5065851;28;20090;-72
2022/07/01 08:36:14;;;;;;;2.45;1.00;;;;;;;20.62;49.73;101663.56;5070542;28;20147;-72
2022/07/01 08:38:42;;;;;;;3.40;1.45;;;;;;;20.58;48.79;101662.50;5069025;28;20025;-74
2022/07/01 08:41:08;;;;;;;2.40;1.13;;;;;;;20.74;49.88;101671.59;5065502;28;20036;-72
2022/07/01 08:43:34;;;;;;;2.85;0.98;;;;;;;20.72;48.19;101669.09;5068096;28;20031;-73
2022/07/01 08:46:03;;;;;;;3.63;1.00;;;;;;;20.85;49.03;101673.16;5068539;28;20532;-74
2022/07/01 08:48:29;;;;;;;4.47;1.17;;;;;;;20.87;48.98;101679.34;5065462;28;20033;-75
2022/07/01 08:50:55;;;;;;;2.78;1.02;;;;;;;20.95;49.03;101680.66;5064950;28;20029;-69
2022/07/01 08:53:20;;;;;;;3.83;1.00;;;;;;;20.82;48.24;101680.22;5066140;28;20380;-69
2022/07/01 08:58:30;;;;;;;4.53;1.58;;;;;;;20.88;46.80;101688.66;5070481;28;20044;-69
2022/07/01 09:01:14;;;;;;;5.07;1.40;;;;;;;20.90;47.61;101706.94;5070910;28;20033;-69
2022/07/01 09:03:40;;;;;;;2.35;1.20;;;;;;;20.74;47.37;101695.00;5049872;28;20025;-69
2022/07/01 09:06:12;;;;;;;3.28;1.33;;;;;;;20.58;47.61;101699.16;5050443;28;20075;-69
2022/07/01 09:08:37;;;;;;;2.83;1.05;;;;;;;20.72;48.39;101697.31;5053137;28;20500;-69
2022/07/01 09:11:21;;;;;;;3.10;1.55;;;;;;;20.72;48.57;101700.13;5050583;28;20052;-69
2022/07/01 09:14:09;;;;;;;4.88;1.30;;;;;;;20.46;48.62;101693.91;5050379;28;20559;-69
2022/07/01 09:16:44;;;;;;;3.67;1.00;;;;;;;20.54;48.36;101693.28;5060329;28;20417;-69
2022/07/01 09:19:11;;;;;;;3.95;1.20;;;;;;;20.71;48.14;101687.16;5089245;28;20475;-69
2022/07/01 09:21:37;;;;;;;3.72;1.10;;;;;;;20.83;48.44;101686.75;5090935;28;20360;-69
2022/07/01 09:24:04;;;;;;;6.47;1.40;;;;;;;20.94;48.26;101693.06;5082825;28;20043;-69
2022/07/01 09:26:30;;;;;;;3.55;1.17;;;;;;;20.97;47.42;101698.13;5067092;28;20028;-69
2022/07/01 09:28:56;;;;;;;4.85;1.30;;;;;;;21.03;47.71;101696.91;5077955;28;20029;-69
2022/07/01 09:31:29;;;;;;;4.47;1.23;;;;;;;21.15;47.49;101693.66;5084035;28;20048;-69
2022/07/01 09:34:05;;;;;;;2.60;1.00;;;;;;;21.31;48.28;101706.38;5085254;28;20029;-68
2022/07/01 09:36:31;;;;;;;4.47;1.20;;;;;;;21.30;47.18;101696.25;5069962;28;20020;-69
2022/07/01 09:38:56;;;;;;;5.25;1.33;;;;;;;21.24;46.74;101705.91;5069441;28;20027;-69
2022/07/01 09:41:25;;;;;;;3.40;1.10;;;;;;;21.21;47.29;101709.34;5071090;28;20025;-69
2022/07/01 09:43:50;;;;;;;3.55;1.10;;;;;;;21.20;46.96;101702.88;5072520;28;20019;-69
2022/07/01 09:46:16;;;;;;;5.07;1.27;;;;;;;21.21;46.82;101698.88;5074834;28;20044;-69
2022/07/01 09:48:44;;;;;;;3.92;1.38;;;;;;;21.19;47.18;101700.34;5083547;28;20107;-69
2022/07/01 09:51:11;;;;;;;2.45;1.10;;;;;;;21.20;47.01;101707.69;5072309;28;20021;-69
2022/07/01 09:53:37;;;;;;;2.70;1.20;;;;;;;21.14;46.79;101715.34;5073310;28;20535;-69
2022/07/01 09:56:03;;;;;;;4.68;1.45;;;;;;;21.15;46.66;101702.94;5073254;28;20044;-69
2022/07/01 09:58:28;;;;;;;2.28;1.20;;;;;;;21.26;46.49;101710.13;5072488;28;20040;-69
2022/07/01 10:00:54;;;;;;;4.93;1.45;;;;;;;21.28;46.14;101709.81;5072312;28;20028;-69
2022/07/01 10:03:20;;;;;;;1.77;0.80;;;;;;;21.43;46.24;101706.81;5089017;28;20036;-69
2022/07/01 10:05:57;;;;;;;2.83;0.93;;;;;;;21.53;46.54;101711.44;5070528;28;20040;-69
2022/07/01 10:08:59;;;;;;;3.28;1.00;;;;;;;21.51;46.35;101716.56;5069375;28;20625;-75
2022/07/01 10:11:49;;;;;;;3.85;1.05;;;;;;;21.62;46.05;101723.75;5070358;28;20056;-69
2022/07/01 10:14:15;;;;;;;4.22;1.00;;;;;;;21.66;44.37;101721.97;5074367;28;20051;-67
2022/07/01 10:16:41;;;;;;;3.72;0.90;;;;;;;21.52;44.16;101718.25;5070268;28;20383;-74
2022/07/01 10:19:25;;;;;;;3.08;1.10;;;;;;;21.62;45.68;101726.56;5071068;28;20020;-74
2022/07/01 10:21:55;;;;;;;3.97;1.10;;;;;;;21.64;43.75;101729.06;5071382;28;20024;-74
2022/07/01 10:24:21;;;;;;;3.38;1.10;;;;;;;21.49;43.57;101735.78;5064207;28;20025;-71
2022/07/01 10:26:46;;;;;;;3.58;0.80;;;;;;;21.77;45.42;101733.94;5071395;28;20032;-75
2022/07/01 10:29:34;;;;;;;2.22;0.88;;;;;;;21.90;45.20;101741.66;5071254;28;20031;-75
2022/07/01 10:32:02;;;;;;;2.20;1.05;;;;;;;21.98;44.31;101748.59;5065484;28;20040;-76
2022/07/01 10:34:39;;;;;;;4.28;1.17;;;;;;;22.12;44.68;101749.47;5078227;28;20159;-77
2022/07/01 10:37:08;;;;;;;2.88;0.90;;;;;;;22.09;42.93;101746.44;5070553;28;20036;-75
2022/07/01 10:40:00;;;;;;;3.58;0.90;;;;;;;21.91;44.52;101750.97;5071772;28;20033;-73
2022/07/01 10:42:36;;;;;;;3.80;1.00;;;;;;;21.83;44.22;101751.66;5056178;28;20048;-68
2022/07/01 10:45:10;;;;;;;2.53;1.02;;;;;;;21.70;43.65;101742.00;5071043;28;20032;-69
2022/07/01 10:47:39;;;;;;;2.65;1.00;;;;;;;21.81;44.35;101735.88;5068294;28;20075;-70
2022/07/01 10:50:13;;;;;;;3.95;1.17;;;;;;;21.77;44.73;101740.47;5067805;28;20353;-69
2022/07/01 10:52:39;;;;;;;6.75;1.48;;;;;;;21.92;44.95;101735.69;5069135;28;20116;-71
2022/07/01 10:55:08;;;;;;;5.05;1.30;;;;;;;22.19;44.76;101734.97;5068220;28;20104;-68
2022/07/01 10:57:38;;;;;;;4.35;0.90;;;;;;;22.24;43.81;101732.03;5062928;28;20054;-67
2022/07/01 11:00:03;;;;;;;4.40;0.93;;;;;;;22.29;43.69;101729.97;5067310;28;20020;-69
2022/07/01 11:02:31;;;;;;;3.13;0.90;;;;;;;22.21;42.88;101738.34;5070230;28;20032;-69
2022/07/01 11:05:04;;;;;;;3.42;0.75;;;;;;;22.18;43.80;101734.13;5063832;28;20434;-68
2022/07/01 11:07:32;;;;;;;3.13;0.85;;;;;;;22.12;43.42;101740.13;5057827;28;20487;-68
2022/07/01 11:09:58;;;;;;;5.07;1.10;;;;;;;21.96;43.76;101736.72;5065625;28;20031;-67
2022/07/01 11:12:24;;;;;;;2.75;0.70;;;;;;;22.00;43.79;101726.50;5066409;28;20033;-68
2022/07/01 11:14:50;;;;;;;5.13;0.90;;;;;;;22.02;43.82;101727.88;5071384;28;20036;-68
2022/07/01 11:17:16;;;;;;;3.90;1.02;;;;;;;22.03;44.36;101718.22;5076838;28;20552;-67
2022/07/01 11:19:48;;;;;;;2.65;1.00;;;;;;;22.08;44.51;101711.66;5071006;28;20025;-67
2022/07/01 11:22:20;;;;;;;2.53;0.70;;;;;;;22.18;44.47;101719.97;5068603;28;20047;-67
2022/07/01 11:24:51;;;;;;;6.80;1.00;;;;;;;22.04;43.00;101719.06;5071541;28;20550;-65